createdAt,value
2018-07-29T00:00:53.680Z,19.10
2018-07-29T00:01:53.695Z,18.40
2018-07-29T00:02:53.685Z,19.60
2018-07-29T00:03:53.691Z,19.40
2018-07-29T00:04:53.691Z,19.00
2018-07-29T00:05:53.691Z,18.20
2018-07-29T00:06:53.696Z,19.10
2018-07-29T00:07:53.698Z,19.40
2018-07-29T00:08:53.697Z,19.80
2018-07-29T00:09:53.703Z,20.40
2018-07-29T00:10:53.706Z,19.30
2018-07-29T00:11:53.713Z,18.60
2018-07-29T00:12:53.720Z,18.30
2018-07-29T00:13:53.715Z,17.60
2018-07-29T00:14:53.716Z,17.80
2018-07-29T00:15:53.718Z,17.40
2018-07-29T00:16:53.720Z,17.50
2018-07-29T00:17:53.722Z,16.80
2018-07-29T00:18:53.725Z,16.30
2018-07-29T00:19:53.728Z,17.10
2018-07-29T00:20:53.735Z,16.20
2018-07-29T00:21:53.728Z,16.00
2018-07-29T00:22:53.783Z,16.60
2018-07-29T00:23:53.737Z,16.40
2018-07-29T00:24:53.745Z,15.30
2018-07-29T00:25:53.754Z,14.80
2018-07-29T00:26:53.739Z,14.70
2018-07-29T00:27:53.747Z,14.90
2018-07-29T00:28:53.747Z,14.60
2018-07-29T00:29:53.753Z,14.60
2018-07-29T00:30:53.794Z,15.30
2018-07-29T00:31:53.756Z,15.90
2018-07-29T00:32:53.758Z,14.50
2018-07-29T00:33:53.777Z,14.40
2018-07-29T00:34:53.766Z,14.30
2018-07-29T00:35:53.768Z,12.80
2018-07-29T00:36:53.769Z,13.30
2018-07-29T00:37:53.777Z,12.90
2018-07-29T00:38:53.780Z,11.30
2018-07-29T00:39:53.774Z,11.20
2018-07-29T00:40:53.778Z,11.30
2018-07-29T00:41:53.781Z,11.00
2018-07-29T00:42:53.786Z,10.60
2018-07-29T00:43:53.786Z,10.70
2018-07-29T00:44:53.789Z,11.00
2018-07-29T00:45:53.791Z,10.00
2018-07-29T00:46:53.789Z,10.10
2018-07-29T00:47:53.793Z,9.90
2018-07-29T00:48:53.796Z,9.80
2018-07-29T00:49:53.799Z,9.00
2018-07-29T00:50:53.802Z,9.20
2018-07-29T00:51:53.808Z,8.80
2018-07-29T00:52:53.820Z,9.40
2018-07-29T00:53:53.810Z,9.30
2018-07-29T00:54:53.811Z,7.70
2018-07-29T00:55:53.860Z,7.80
2018-07-29T00:56:53.819Z,7.60
2018-07-29T00:57:53.825Z,7.70
2018-07-29T00:58:53.821Z,7.80
2018-07-29T00:59:53.822Z,8.50
2018-07-29T01:00:53.828Z,8.30
2018-07-29T01:01:53.835Z,8.00
2018-07-29T01:02:53.828Z,8.20
2018-07-29T01:03:53.832Z,8.10
2018-07-29T01:04:53.837Z,8.10
2018-07-29T01:05:53.863Z,8.60
2018-07-29T01:06:53.843Z,8.80
2018-07-29T01:07:53.843Z,8.30
2018-07-29T01:08:53.844Z,8.10
2018-07-29T01:09:53.849Z,8.90
2018-07-29T01:10:53.847Z,10.00
2018-07-29T01:11:53.856Z,10.00
2018-07-29T01:12:53.854Z,10.80
2018-07-29T01:13:53.859Z,11.30
2018-07-29T01:14:53.861Z,10.90
2018-07-29T01:15:53.859Z,10.40
2018-07-29T01:16:53.864Z,10.20
2018-07-29T01:17:53.879Z,9.60
2018-07-29T01:18:53.892Z,10.80
2018-07-29T01:19:53.928Z,10.40
2018-07-29T01:20:53.870Z,9.30
2018-07-29T01:21:53.877Z,10.00
2018-07-29T01:22:53.880Z,9.20
2018-07-29T01:23:53.888Z,10.30
2018-07-29T01:24:53.885Z,10.00
2018-07-29T01:25:53.890Z,10.30
2018-07-29T01:26:53.897Z,10.60
2018-07-29T01:27:53.895Z,10.80
2018-07-29T01:28:53.895Z,10.70
2018-07-29T01:29:53.900Z,9.90
2018-07-29T01:30:53.906Z,9.80
2018-07-29T01:31:53.902Z,10.10
2018-07-29T01:32:53.907Z,11.20
2018-07-29T01:33:53.916Z,11.30
2018-07-29T01:34:53.907Z,10.40
2018-07-29T01:35:53.909Z,10.50
2018-07-29T01:36:53.920Z,11.40
2018-07-29T01:37:53.917Z,11.20
2018-07-29T01:38:53.920Z,11.80
2018-07-29T01:39:53.927Z,11.60
2018-07-29T01:40:53.928Z,10.60
2018-07-29T01:41:53.945Z,12.60
2018-07-29T01:42:53.933Z,11.00
2018-07-29T01:43:53.934Z,11.90
2018-07-29T01:44:53.939Z,13.30
2018-07-29T01:45:53.940Z,12.80
2018-07-29T01:46:53.945Z,12.60
2018-07-29T01:47:53.951Z,13.10
2018-07-29T01:48:53.947Z,13.50
2018-07-29T01:49:53.955Z,13.70
2018-07-29T01:50:53.953Z,13.80
2018-07-29T01:51:53.953Z,14.60
2018-07-29T01:52:53.958Z,14.10
2018-07-29T01:53:53.961Z,14.00
2018-07-29T01:54:53.967Z,14.40
2018-07-29T01:55:53.966Z,13.40
2018-07-29T01:56:53.968Z,14.20
2018-07-29T01:57:53.971Z,13.10
2018-07-29T01:58:53.970Z,13.50
2018-07-29T01:59:53.975Z,13.80
2018-07-29T02:00:53.988Z,14.40
2018-07-29T02:01:53.986Z,14.30
2018-07-29T02:02:53.982Z,13.40
2018-07-29T02:03:53.987Z,14.20
2018-07-29T02:04:53.986Z,13.20
2018-07-29T02:05:53.990Z,14.00
2018-07-29T02:06:53.994Z,14.40
2018-07-29T02:07:53.998Z,13.90
2018-07-29T02:08:54.012Z,14.00
2018-07-29T02:09:54.004Z,13.70
2018-07-29T02:10:54.006Z,13.30
2018-07-29T02:11:54.008Z,15.30
2018-07-29T02:12:54.012Z,16.30
2018-07-29T02:13:54.014Z,16.30
2018-07-29T02:14:54.020Z,14.60
2018-07-29T02:15:54.022Z,14.30
2018-07-29T02:16:54.022Z,14.10
2018-07-29T02:17:54.022Z,12.00
2018-07-29T02:18:54.029Z,11.00
2018-07-29T02:19:54.030Z,9.40
2018-07-29T02:20:54.031Z,10.50
2018-07-29T02:21:54.034Z,6.00
2018-07-29T02:22:54.040Z,5.90
2018-07-29T02:23:54.039Z,6.00
2018-07-29T02:24:54.041Z,6.20
2018-07-29T02:25:54.045Z,6.40
2018-07-29T02:26:54.046Z,5.20
2018-07-29T02:27:54.050Z,5.70
2018-07-29T02:28:54.051Z,5.80
2018-07-29T02:29:54.052Z,5.60
2018-07-29T02:30:54.055Z,6.60
2018-07-29T02:31:54.060Z,7.70
2018-07-29T02:32:54.061Z,7.60
2018-07-29T02:33:54.061Z,8.50
2018-07-29T02:34:54.066Z,8.30
2018-07-29T02:35:54.069Z,8.00
2018-07-29T02:36:54.078Z,7.90
2018-07-29T02:37:54.074Z,7.90
2018-07-29T02:38:54.078Z,8.00
2018-07-29T02:39:54.078Z,8.00
2018-07-29T02:40:54.080Z,7.90
2018-07-29T02:41:54.092Z,8.30
2018-07-29T02:42:54.088Z,8.10
2018-07-29T02:43:54.103Z,9.40
2018-07-29T02:44:54.097Z,8.00
2018-07-29T02:45:54.095Z,7.70
2018-07-29T02:46:54.096Z,7.60
2018-07-29T02:47:54.095Z,8.20
2018-07-29T02:48:54.098Z,8.40
2018-07-29T02:49:54.106Z,7.60
2018-07-29T02:50:54.106Z,8.50
2018-07-29T02:51:54.109Z,8.30
2018-07-29T02:52:54.136Z,8.00
2018-07-29T02:53:54.135Z,8.70
2018-07-29T02:54:54.114Z,8.30
2018-07-29T02:55:54.123Z,6.30
2018-07-29T02:56:54.129Z,7.40
2018-07-29T02:57:54.131Z,7.60
2018-07-29T02:58:54.131Z,7.50
2018-07-29T02:59:54.128Z,7.60
2018-07-29T03:00:54.131Z,7.80
2018-07-29T03:01:54.131Z,7.90
2018-07-29T03:02:54.138Z,8.50
2018-07-29T03:03:54.137Z,8.40
2018-07-29T03:04:54.139Z,8.60
2018-07-29T03:05:54.142Z,8.60
2018-07-29T03:06:54.143Z,8.10
2018-07-29T03:07:54.144Z,8.10
2018-07-29T03:08:54.149Z,8.00
2018-07-29T03:09:54.150Z,8.00
2018-07-29T03:10:54.150Z,9.60
2018-07-29T03:11:54.152Z,9.90
2018-07-29T03:12:54.156Z,10.20
2018-07-29T03:13:54.157Z,9.60
2018-07-29T03:14:54.161Z,9.30
2018-07-29T03:15:54.165Z,8.70
2018-07-29T03:16:54.165Z,8.50
2018-07-29T03:17:54.279Z,8.70
2018-07-29T03:18:54.172Z,8.80
2018-07-29T03:19:54.173Z,8.80
2018-07-29T03:20:54.176Z,9.80
2018-07-29T03:21:54.176Z,10.20
2018-07-29T03:22:54.185Z,10.40
2018-07-29T03:23:54.180Z,11.10
2018-07-29T03:24:54.185Z,10.00
2018-07-29T03:25:54.188Z,9.60
2018-07-29T03:26:54.192Z,9.30
2018-07-29T03:27:54.189Z,7.90
2018-07-29T03:28:54.191Z,7.70
2018-07-29T03:29:54.195Z,7.00
2018-07-29T03:30:54.206Z,6.50
2018-07-29T03:31:54.203Z,6.50
2018-07-29T03:32:54.203Z,7.40
2018-07-29T03:33:54.203Z,7.90
2018-07-29T03:34:54.206Z,7.10
2018-07-29T03:35:54.214Z,7.50
2018-07-29T03:36:54.210Z,8.10
2018-07-29T03:37:54.217Z,8.40
2018-07-29T03:38:54.212Z,7.60
2018-07-29T03:39:54.215Z,7.70
2018-07-29T03:40:54.220Z,8.10
2018-07-29T03:41:54.229Z,7.70
2018-07-29T03:42:54.227Z,8.10
2018-07-29T03:43:54.233Z,8.70
2018-07-29T03:44:54.228Z,8.60
2018-07-29T03:45:54.230Z,8.80
2018-07-29T03:46:54.230Z,9.00
2018-07-29T03:47:54.237Z,8.80
2018-07-29T03:48:54.235Z,8.30
2018-07-29T03:49:54.249Z,8.30
2018-07-29T03:50:54.238Z,8.40
2018-07-29T03:51:54.241Z,9.10
2018-07-29T03:52:54.248Z,8.60
2018-07-29T03:53:54.256Z,8.70
2018-07-29T03:54:54.255Z,8.90
2018-07-29T03:55:54.250Z,8.80
2018-07-29T03:56:54.251Z,8.90
2018-07-29T03:57:54.252Z,8.80
2018-07-29T03:58:54.253Z,9.20
2018-07-29T03:59:54.260Z,9.40
2018-07-29T04:00:54.252Z,9.40
2018-07-29T04:01:54.261Z,9.30
2018-07-29T04:02:54.261Z,9.70
2018-07-29T04:03:54.265Z,9.70
2018-07-29T04:04:54.266Z,9.90
2018-07-29T04:05:54.268Z,9.70
2018-07-29T04:06:54.271Z,9.80
2018-07-29T04:07:54.273Z,10.60
2018-07-29T04:08:54.272Z,9.90
2018-07-29T04:09:54.275Z,10.20
2018-07-29T04:10:54.277Z,11.00
2018-07-29T04:11:54.282Z,10.80
2018-07-29T04:12:54.280Z,10.90
2018-07-29T04:13:54.282Z,11.10
2018-07-29T04:14:54.288Z,11.30
2018-07-29T04:15:54.284Z,10.60
2018-07-29T04:16:54.288Z,10.80
2018-07-29T04:17:54.288Z,11.30
2018-07-29T04:18:54.293Z,11.60
2018-07-29T04:19:54.290Z,11.10
2018-07-29T04:20:54.290Z,11.50
2018-07-29T04:21:54.294Z,11.00
2018-07-29T04:22:54.293Z,11.50
2018-07-29T04:23:54.300Z,11.00
2018-07-29T04:24:54.309Z,11.20
2018-07-29T04:25:54.299Z,11.50
2018-07-29T04:26:54.303Z,11.00
2018-07-29T04:27:54.304Z,11.90
2018-07-29T04:28:54.308Z,12.30
2018-07-29T04:29:54.310Z,12.50
2018-07-29T04:30:54.308Z,12.00
2018-07-29T04:31:54.311Z,11.70
2018-07-29T04:32:54.312Z,12.10
2018-07-29T04:33:54.317Z,11.70
2018-07-29T04:34:54.318Z,11.20
2018-07-29T04:35:54.319Z,11.00
2018-07-29T04:36:54.316Z,11.60
2018-07-29T04:37:54.320Z,12.30
2018-07-29T04:38:54.323Z,12.00
2018-07-29T04:39:54.324Z,11.40
2018-07-29T04:40:54.326Z,11.60
2018-07-29T04:41:54.322Z,11.10
2018-07-29T04:42:54.327Z,11.30
2018-07-29T04:43:54.329Z,10.90
2018-07-29T04:44:54.331Z,11.30
2018-07-29T04:45:54.333Z,10.70
2018-07-29T04:46:54.334Z,11.40
2018-07-29T04:47:54.501Z,11.60
2018-07-29T04:48:54.339Z,11.50
2018-07-29T04:49:54.338Z,11.60
2018-07-29T04:50:54.339Z,11.70
2018-07-29T04:51:54.341Z,10.70
2018-07-29T04:52:54.349Z,11.00
2018-07-29T04:53:54.345Z,10.80
2018-07-29T04:54:54.349Z,10.90
2018-07-29T04:55:54.353Z,10.20
2018-07-29T04:56:54.351Z,10.40
2018-07-29T04:57:54.353Z,10.10
2018-07-29T04:58:54.351Z,9.70
2018-07-29T04:59:54.355Z,9.60
2018-07-29T05:00:54.358Z,10.10
2018-07-29T05:01:54.357Z,10.30
2018-07-29T05:02:54.362Z,10.00
2018-07-29T05:03:54.358Z,9.80
2018-07-29T05:04:54.364Z,9.90
2018-07-29T05:05:54.368Z,10.10
2018-07-29T05:06:54.370Z,9.50
2018-07-29T05:07:54.371Z,9.70
2018-07-29T05:08:54.375Z,9.90
2018-07-29T05:09:54.375Z,10.60
2018-07-29T05:10:54.387Z,9.20
2018-07-29T05:11:54.380Z,9.50
2018-07-29T05:12:54.384Z,9.50
2018-07-29T05:13:54.384Z,9.50
2018-07-29T05:14:54.384Z,9.20
2018-07-29T05:15:54.387Z,9.80
2018-07-29T05:16:54.392Z,9.80
2018-07-29T05:17:54.393Z,9.40
2018-07-29T05:18:54.395Z,9.80
2018-07-29T05:19:54.401Z,9.60
2018-07-29T05:20:54.399Z,9.70
2018-07-29T05:21:54.400Z,10.10
2018-07-29T05:22:54.397Z,10.20
2018-07-29T05:23:54.404Z,10.50
2018-07-29T05:24:54.412Z,10.70
2018-07-29T05:25:54.416Z,10.50
2018-07-29T05:26:54.417Z,11.00
2018-07-29T05:27:54.418Z,10.70
2018-07-29T05:28:54.416Z,10.30
2018-07-29T05:29:54.420Z,10.40
2018-07-29T05:30:54.418Z,10.40
2018-07-29T05:31:54.419Z,10.40
2018-07-29T05:32:54.423Z,10.10
2018-07-29T05:33:54.428Z,10.70
2018-07-29T05:34:54.425Z,11.00
2018-07-29T05:35:54.427Z,10.50
2018-07-29T05:36:54.431Z,11.20
2018-07-29T05:37:54.436Z,11.10
2018-07-29T05:38:54.438Z,12.00
2018-07-29T05:39:54.440Z,11.40
2018-07-29T05:40:54.447Z,11.40
2018-07-29T05:41:54.442Z,12.70
2018-07-29T05:42:54.444Z,12.20
2018-07-29T05:43:54.446Z,11.20
2018-07-29T05:44:54.452Z,11.80
2018-07-29T05:45:54.449Z,11.20
2018-07-29T05:46:54.452Z,11.50
2018-07-29T05:47:54.554Z,12.20
2018-07-29T05:48:54.456Z,12.20
2018-07-29T05:49:54.458Z,12.10
2018-07-29T05:50:54.458Z,11.90
2018-07-29T05:51:54.464Z,11.40
2018-07-29T05:52:54.464Z,12.10
2018-07-29T05:53:54.466Z,12.60
2018-07-29T05:54:54.465Z,12.60
2018-07-29T05:55:54.472Z,12.00
2018-07-29T05:56:54.475Z,12.20
2018-07-29T05:57:54.478Z,11.90
2018-07-29T05:58:54.475Z,11.60
2018-07-29T05:59:54.470Z,12.20
2018-07-29T06:00:54.479Z,12.60
2018-07-29T06:01:54.481Z,12.80
2018-07-29T06:02:54.487Z,13.30
2018-07-29T06:03:54.486Z,13.40
2018-07-29T06:04:54.491Z,13.40
2018-07-29T06:05:54.620Z,14.00
2018-07-29T06:06:54.494Z,13.70
2018-07-29T06:07:54.493Z,13.10
2018-07-29T06:08:54.507Z,13.10
2018-07-29T06:09:54.497Z,13.10
2018-07-29T06:10:54.498Z,12.50
2018-07-29T06:11:54.498Z,12.10
2018-07-29T06:12:54.500Z,12.10
2018-07-29T06:13:54.506Z,12.50
2018-07-29T06:14:54.506Z,12.60
2018-07-29T06:15:54.508Z,13.00
2018-07-29T06:16:54.510Z,13.20
2018-07-29T06:17:54.626Z,13.00
2018-07-29T06:18:54.516Z,13.00
2018-07-29T06:19:54.520Z,12.30
2018-07-29T06:20:54.518Z,13.30
2018-07-29T06:21:54.523Z,13.10
2018-07-29T06:22:54.521Z,12.10
2018-07-29T06:23:54.525Z,13.10
2018-07-29T06:24:54.528Z,12.30
2018-07-29T06:25:54.554Z,12.50
2018-07-29T06:26:54.583Z,12.70
2018-07-29T06:27:54.531Z,13.10
2018-07-29T06:28:54.536Z,14.30
2018-07-29T06:29:54.536Z,13.80
2018-07-29T06:30:54.537Z,13.80
2018-07-29T06:31:54.540Z,13.40
2018-07-29T06:32:54.562Z,13.40
2018-07-29T06:33:54.542Z,13.80
2018-07-29T06:34:54.546Z,14.20
2018-07-29T06:35:54.551Z,14.00
2018-07-29T06:36:54.574Z,14.20
2018-07-29T06:37:54.554Z,13.80
2018-07-29T06:38:54.557Z,13.70
2018-07-29T06:39:54.579Z,14.30
2018-07-29T06:40:54.612Z,15.10
2018-07-29T06:41:54.567Z,15.40
2018-07-29T06:42:54.566Z,14.50
2018-07-29T06:43:54.584Z,14.30
2018-07-29T06:44:54.574Z,14.00
2018-07-29T06:45:54.580Z,14.00
2018-07-29T06:46:54.582Z,15.20
2018-07-29T06:47:54.581Z,15.00
2018-07-29T06:48:54.587Z,14.20
2018-07-29T06:49:54.584Z,14.80
2018-07-29T06:50:54.673Z,14.40
2018-07-29T06:51:54.788Z,14.70
2018-07-29T06:52:54.597Z,13.50
2018-07-29T06:53:54.600Z,14.70
2018-07-29T06:54:54.603Z,14.00
2018-07-29T06:55:54.605Z,13.70
2018-07-29T06:56:54.609Z,14.20
2018-07-29T06:57:54.615Z,13.80
2018-07-29T06:58:54.614Z,13.40
2018-07-29T06:59:54.618Z,13.50
2018-07-29T07:00:54.620Z,13.80
2018-07-29T07:01:54.622Z,14.60
2018-07-29T07:02:54.630Z,14.30
2018-07-29T07:03:54.632Z,13.90
2018-07-29T07:04:54.636Z,13.60
2018-07-29T07:05:54.699Z,13.90
2018-07-29T07:06:54.636Z,13.30
2018-07-29T07:07:54.646Z,13.50
2018-07-29T07:08:54.649Z,13.00
2018-07-29T07:09:54.652Z,12.70
2018-07-29T07:10:54.656Z,12.40
2018-07-29T07:11:54.665Z,11.90
2018-07-29T07:12:54.667Z,12.70
2018-07-29T07:13:54.673Z,12.10
2018-07-29T07:14:54.675Z,12.20
2018-07-29T07:15:54.756Z,12.50
2018-07-29T07:16:54.684Z,12.60
2018-07-29T07:17:54.704Z,12.50
2018-07-29T07:18:54.694Z,12.30
2018-07-29T07:19:54.729Z,12.00
2018-07-29T07:20:54.705Z,12.80
2018-07-29T07:21:54.707Z,12.00
2018-07-29T07:22:54.730Z,12.30
2018-07-29T07:23:54.717Z,12.20
2018-07-29T07:24:54.722Z,12.00
2018-07-29T07:25:54.735Z,11.30
2018-07-29T07:26:54.734Z,11.20
2018-07-29T07:27:54.738Z,10.90
2018-07-29T07:28:54.756Z,11.40
2018-07-29T07:29:54.751Z,11.70
2018-07-29T07:30:54.752Z,10.80
2018-07-29T07:31:54.758Z,10.30
2018-07-29T07:32:54.789Z,10.90
2018-07-29T07:33:54.770Z,11.30
2018-07-29T07:34:54.781Z,11.30
2018-07-29T07:35:54.785Z,10.50
2018-07-29T07:36:54.786Z,10.40
2018-07-29T07:37:54.796Z,10.20
2018-07-29T07:38:54.796Z,10.00
2018-07-29T07:39:54.803Z,10.50
2018-07-29T07:40:54.810Z,10.70
2018-07-29T07:41:54.816Z,10.60
2018-07-29T07:42:54.822Z,10.80
2018-07-29T07:43:54.827Z,9.90
2018-07-29T07:44:54.839Z,9.70
2018-07-29T07:45:54.856Z,10.00
2018-07-29T07:46:54.856Z,10.40
2018-07-29T07:47:54.851Z,11.10
2018-07-29T07:48:54.859Z,10.50
2018-07-29T07:49:54.864Z,9.80
2018-07-29T07:50:54.869Z,9.50
2018-07-29T07:51:54.875Z,10.20
2018-07-29T07:52:54.934Z,9.70
2018-07-29T07:53:54.888Z,10.20
2018-07-29T07:54:54.894Z,10.10
2018-07-29T07:55:54.901Z,9.90
2018-07-29T07:56:54.907Z,9.90
2018-07-29T07:57:54.916Z,8.60
2018-07-29T07:58:54.919Z,8.50
2018-07-29T07:59:54.926Z,7.90
2018-07-29T08:00:54.974Z,8.80
2018-07-29T08:01:55.003Z,7.80
2018-07-29T08:02:54.953Z,7.80
2018-07-29T08:03:54.957Z,7.60
2018-07-29T08:04:54.961Z,7.20
2018-07-29T08:05:54.970Z,7.20
2018-07-29T08:06:54.977Z,7.40
2018-07-29T08:07:55.008Z,6.90
2018-07-29T08:08:54.995Z,7.00
2018-07-29T08:09:55.001Z,7.10
2018-07-29T08:10:55.010Z,7.00
2018-07-29T08:11:55.019Z,7.30
2018-07-29T08:12:55.040Z,8.10
2018-07-29T08:13:55.033Z,7.80
2018-07-29T08:14:55.040Z,7.70
2018-07-29T08:15:55.049Z,7.60
2018-07-29T08:16:55.076Z,7.00
2018-07-29T08:17:55.065Z,7.10
2018-07-29T08:18:55.076Z,7.20
2018-07-29T08:19:55.083Z,6.30
2018-07-29T08:20:55.094Z,6.30
2018-07-29T08:21:55.103Z,6.50
2018-07-29T08:22:55.112Z,6.70
2018-07-29T08:23:55.119Z,6.90
2018-07-29T08:24:55.131Z,7.10
2018-07-29T08:25:55.140Z,6.60
2018-07-29T08:26:55.145Z,6.80
2018-07-29T08:27:55.171Z,6.70
2018-07-29T08:28:55.172Z,6.50
2018-07-29T08:29:55.178Z,6.40
2018-07-29T08:30:55.182Z,6.20
2018-07-29T08:31:55.193Z,6.20
2018-07-29T08:32:55.202Z,6.30
2018-07-29T08:33:55.211Z,5.60
2018-07-29T08:34:55.220Z,5.80
2018-07-29T08:35:55.232Z,5.70
2018-07-29T08:36:55.239Z,5.60
2018-07-29T08:37:55.251Z,5.50
2018-07-29T08:38:55.310Z,5.60
2018-07-29T08:39:55.269Z,5.60
2018-07-29T08:40:55.281Z,5.10
2018-07-29T08:41:55.295Z,4.80
2018-07-29T08:42:55.301Z,5.80
2018-07-29T08:43:55.311Z,5.30
2018-07-29T08:44:55.344Z,5.70
2018-07-29T08:45:55.334Z,5.90
2018-07-29T08:46:55.344Z,6.00
2018-07-29T08:47:55.355Z,5.70
2018-07-29T08:48:55.366Z,6.10
2018-07-29T08:49:55.374Z,6.10
2018-07-29T08:50:55.382Z,6.10
2018-07-29T08:51:55.400Z,6.20
2018-07-29T08:52:55.412Z,6.00
2018-07-29T08:53:55.413Z,6.20
2018-07-29T08:54:55.428Z,6.40
2018-07-29T08:55:55.433Z,5.90
2018-07-29T08:56:55.440Z,5.90
2018-07-29T08:57:55.450Z,6.00
2018-07-29T08:58:55.458Z,5.50
2018-07-29T08:59:55.471Z,5.30
2018-07-29T09:00:55.476Z,5.50
2018-07-29T09:01:55.487Z,5.20
2018-07-29T09:02:55.497Z,4.70
2018-07-29T09:03:55.525Z,4.70
2018-07-29T09:04:55.517Z,4.90
2018-07-29T09:05:55.523Z,4.50
2018-07-29T09:06:55.534Z,4.40
2018-07-29T09:07:55.543Z,5.00
2018-07-29T09:08:55.555Z,4.30
2018-07-29T09:09:55.573Z,4.60
2018-07-29T09:10:55.575Z,4.70
2018-07-29T09:11:55.578Z,4.30
2018-07-29T09:12:55.605Z,4.40
2018-07-29T09:13:55.597Z,5.20
2018-07-29T09:14:55.604Z,4.90
2018-07-29T09:15:55.707Z,4.80
2018-07-29T09:16:55.622Z,4.90
2018-07-29T09:17:55.632Z,4.80
2018-07-29T09:18:55.634Z,4.70
2018-07-29T09:19:55.661Z,4.90
2018-07-29T09:20:55.656Z,4.80
2018-07-29T09:21:55.666Z,4.70
2018-07-29T09:22:55.674Z,4.80
2018-07-29T09:23:55.679Z,4.70
2018-07-29T09:24:55.686Z,4.60
2018-07-29T09:25:55.698Z,5.00
2018-07-29T09:26:55.710Z,4.90
2018-07-29T09:27:55.709Z,4.80
2018-07-29T09:28:55.727Z,4.70
2018-07-29T09:29:55.723Z,5.00
2018-07-29T09:30:55.839Z,5.00
2018-07-29T09:31:55.734Z,5.10
2018-07-29T09:32:55.741Z,4.70
2018-07-29T09:33:55.753Z,4.50
2018-07-29T09:34:55.754Z,5.00
2018-07-29T09:35:55.763Z,4.60
2018-07-29T09:36:55.769Z,4.70
2018-07-29T09:37:55.775Z,5.00
2018-07-29T09:38:55.789Z,5.30
2018-07-29T09:39:55.833Z,6.10
2018-07-29T09:40:55.795Z,5.70
2018-07-29T09:41:55.800Z,5.80
2018-07-29T09:42:55.806Z,5.90
2018-07-29T09:43:55.812Z,5.70
2018-07-29T09:44:55.822Z,5.50
2018-07-29T09:45:55.830Z,5.70
2018-07-29T09:46:55.836Z,5.90
2018-07-29T09:47:55.838Z,6.00
2018-07-29T09:48:55.845Z,5.80
2018-07-29T09:49:55.851Z,5.30
2018-07-29T09:50:55.850Z,5.30
2018-07-29T09:51:55.860Z,5.20
2018-07-29T09:52:55.868Z,5.00
2018-07-29T09:53:55.875Z,5.40
2018-07-29T09:54:55.879Z,4.90
2018-07-29T09:55:55.879Z,5.20
2018-07-29T09:56:55.891Z,4.80
2018-07-29T09:57:55.899Z,4.80
2018-07-29T09:58:55.902Z,5.20
2018-07-29T09:59:55.903Z,5.10
2018-07-29T10:00:55.911Z,5.20
2018-07-29T10:01:55.917Z,5.20
2018-07-29T10:02:55.947Z,4.70
2018-07-29T10:03:55.938Z,5.10
2018-07-29T10:04:55.939Z,4.70
2018-07-29T10:05:55.942Z,4.60
2018-07-29T10:06:55.948Z,4.70
2018-07-29T10:07:55.955Z,4.60
2018-07-29T10:08:55.971Z,4.40
2018-07-29T10:09:55.966Z,5.00
2018-07-29T10:10:55.976Z,4.70
2018-07-29T10:11:55.973Z,4.70
2018-07-29T10:12:55.982Z,4.60
2018-07-29T10:13:56.077Z,4.40
2018-07-29T10:14:55.993Z,4.30
2018-07-29T10:15:55.999Z,4.10
2018-07-29T10:16:56.004Z,4.50
2018-07-29T10:17:56.010Z,4.60
2018-07-29T10:18:56.016Z,4.60
2018-07-29T10:19:56.016Z,4.30
2018-07-29T10:20:56.045Z,3.80
2018-07-29T10:21:56.032Z,4.30
2018-07-29T10:22:56.038Z,4.20
2018-07-29T10:23:56.043Z,4.60
2018-07-29T10:24:56.050Z,4.50
2018-07-29T10:25:56.055Z,4.10
2018-07-29T10:26:56.064Z,4.00
2018-07-29T10:27:56.066Z,4.20
2018-07-29T10:28:56.072Z,3.90
2018-07-29T10:29:56.083Z,4.00
2018-07-29T10:30:56.088Z,3.80
2018-07-29T10:31:56.086Z,3.20
2018-07-29T10:32:56.095Z,3.60
2018-07-29T10:33:56.106Z,3.60
2018-07-29T10:34:56.105Z,4.00
2018-07-29T10:35:56.113Z,4.30
2018-07-29T10:36:56.121Z,4.50
2018-07-29T10:37:56.121Z,4.20
2018-07-29T10:38:56.128Z,3.60
2018-07-29T10:39:56.136Z,3.60
2018-07-29T10:40:56.141Z,3.00
2018-07-29T10:41:56.148Z,3.10
2018-07-29T10:42:56.153Z,3.20
2018-07-29T10:43:56.173Z,2.80
2018-07-29T10:44:56.164Z,3.10
2018-07-29T10:45:56.170Z,3.00
2018-07-29T10:46:56.212Z,2.70
2018-07-29T10:47:56.179Z,2.70
2018-07-29T10:48:56.186Z,2.60
2018-07-29T10:49:56.194Z,2.70
2018-07-29T10:50:56.197Z,3.00
2018-07-29T10:51:56.204Z,2.90
2018-07-29T10:52:56.215Z,2.80
2018-07-29T10:53:56.217Z,2.90
2018-07-29T10:54:56.226Z,2.90
2018-07-29T10:55:56.228Z,2.90
2018-07-29T10:56:56.236Z,2.80
2018-07-29T10:57:56.257Z,2.90
2018-07-29T10:58:56.241Z,2.90
2018-07-29T10:59:56.369Z,3.10
2018-07-29T11:00:56.255Z,2.90
2018-07-29T11:01:56.260Z,2.70
2018-07-29T11:02:56.266Z,2.80
2018-07-29T11:03:56.265Z,2.90
2018-07-29T11:04:56.275Z,2.90
2018-07-29T11:05:56.286Z,2.90
2018-07-29T11:06:56.288Z,2.90
2018-07-29T11:07:56.291Z,3.10
2018-07-29T11:08:56.309Z,3.20
2018-07-29T11:09:56.303Z,2.90
2018-07-29T11:10:56.305Z,2.70
2018-07-29T11:11:56.505Z,3.00
2018-07-29T11:12:56.323Z,2.90
2018-07-29T11:13:56.323Z,2.90
2018-07-29T11:14:56.329Z,3.00
2018-07-29T11:15:56.334Z,2.80
2018-07-29T11:16:56.342Z,3.00
2018-07-29T11:17:56.345Z,2.70
2018-07-29T11:18:56.350Z,2.80
2018-07-29T11:19:56.356Z,2.90
2018-07-29T11:20:56.366Z,2.80
2018-07-29T11:21:56.368Z,3.10
2018-07-29T11:22:56.373Z,3.00
2018-07-29T11:23:56.495Z,3.10
2018-07-29T11:24:56.383Z,3.20
2018-07-29T11:25:56.389Z,3.10
2018-07-29T11:26:56.396Z,3.30
2018-07-29T11:27:56.402Z,3.10
2018-07-29T11:28:56.409Z,3.20
2018-07-29T11:29:56.413Z,3.00
2018-07-29T11:30:56.415Z,3.10
2018-07-29T11:31:56.421Z,2.90
2018-07-29T11:32:56.427Z,3.30
2018-07-29T11:33:56.461Z,3.00
2018-07-29T11:34:56.483Z,3.00
2018-07-29T11:35:56.449Z,3.20
2018-07-29T11:36:56.449Z,3.30
2018-07-29T11:37:56.456Z,3.30
2018-07-29T11:38:56.456Z,3.00
2018-07-29T11:39:56.465Z,3.00
2018-07-29T11:40:56.471Z,3.10
2018-07-29T11:41:56.474Z,3.00
2018-07-29T11:42:56.482Z,3.10
2018-07-29T11:43:56.487Z,2.90
2018-07-29T11:44:56.491Z,3.00
2018-07-29T11:45:56.501Z,3.10
2018-07-29T11:46:56.509Z,3.00
2018-07-29T11:47:56.507Z,2.80
2018-07-29T11:48:56.514Z,3.10
2018-07-29T11:49:56.523Z,3.30
2018-07-29T11:50:56.524Z,3.10
2018-07-29T11:51:56.545Z,2.90
2018-07-29T11:52:56.537Z,3.10
2018-07-29T11:53:56.556Z,3.20
2018-07-29T11:54:56.546Z,2.90
2018-07-29T11:55:56.553Z,3.20
2018-07-29T11:56:56.556Z,2.90
2018-07-29T11:57:56.562Z,3.00
2018-07-29T11:58:56.573Z,3.20
2018-07-29T11:59:56.573Z,3.10
2018-07-29T12:00:56.579Z,3.20
2018-07-29T12:01:56.587Z,2.80
2018-07-29T12:02:56.646Z,3.10
2018-07-29T12:03:56.606Z,3.10
2018-07-29T12:04:56.608Z,3.00
2018-07-29T12:05:56.610Z,2.90
2018-07-29T12:06:56.640Z,2.70
2018-07-29T12:07:56.626Z,3.00
2018-07-29T12:08:56.635Z,2.80
2018-07-29T12:09:56.627Z,2.80
2018-07-29T12:10:56.632Z,2.90
2018-07-29T12:11:56.642Z,2.90
2018-07-29T12:12:56.644Z,3.00
2018-07-29T12:13:56.651Z,3.00
2018-07-29T12:14:56.659Z,3.20
2018-07-29T12:15:56.664Z,3.00
2018-07-29T12:16:56.670Z,3.00
2018-07-29T12:17:56.683Z,3.10
2018-07-29T12:18:56.682Z,2.90
2018-07-29T12:19:56.689Z,3.00
2018-07-29T12:20:56.695Z,2.80
2018-07-29T12:21:56.701Z,2.90
2018-07-29T12:22:56.707Z,3.20
2018-07-29T12:23:56.710Z,3.00
2018-07-29T12:24:56.718Z,3.00
2018-07-29T12:25:56.723Z,2.80
2018-07-29T12:26:56.728Z,3.00
2018-07-29T12:27:56.858Z,2.90
2018-07-29T12:28:56.742Z,3.00
2018-07-29T12:29:56.746Z,3.00
2018-07-29T12:30:56.751Z,3.00
2018-07-29T12:31:56.761Z,2.80
2018-07-29T12:32:56.764Z,2.80
2018-07-29T12:33:56.768Z,3.20
2018-07-29T12:34:56.777Z,3.20
2018-07-29T12:35:56.781Z,3.00
2018-07-29T12:36:56.786Z,2.90
2018-07-29T12:37:56.806Z,2.80
2018-07-29T12:38:56.799Z,2.80
2018-07-29T12:39:56.806Z,3.00
2018-07-29T12:40:56.811Z,2.50
2018-07-29T12:41:56.817Z,2.70
2018-07-29T12:42:56.824Z,2.80
2018-07-29T12:43:56.835Z,2.90
2018-07-29T12:44:56.838Z,3.00
2018-07-29T12:45:56.848Z,3.00
2018-07-29T12:46:56.856Z,2.70
2018-07-29T12:47:56.858Z,2.80
2018-07-29T12:48:56.864Z,2.90
2018-07-29T12:49:56.874Z,2.80
2018-07-29T12:50:56.867Z,2.80
2018-07-29T12:51:56.877Z,2.80
2018-07-29T12:52:56.890Z,2.90
2018-07-29T12:53:56.896Z,2.70
2018-07-29T12:54:56.892Z,3.00
2018-07-29T12:55:56.900Z,3.00
2018-07-29T12:56:56.905Z,2.90
2018-07-29T12:57:56.943Z,2.80
2018-07-29T12:58:56.917Z,3.00
2018-07-29T12:59:56.924Z,2.80
2018-07-29T13:00:56.928Z,2.90
2018-07-29T13:01:56.937Z,3.30
2018-07-29T13:02:56.939Z,3.10
2018-07-29T13:03:56.949Z,2.90
2018-07-29T13:04:56.955Z,2.90
2018-07-29T13:05:56.973Z,2.80
2018-07-29T13:06:56.969Z,2.70
2018-07-29T13:07:56.973Z,2.90